THY4902 LTFM-LTCW
Flight info
| Callsign | THY4902 |
|---|---|
| Flight time | N/A |
| Altitude | 350 |
| Route | VICEN UT57 VEVUD UT341 BAG UG8 EZS UT36 ULTED UT301 INLAP |
| Aircraft | A321/M-SDE3/K |
Departure
| Time | N/A |
|---|---|
| Airport | İstanbul Airport (LTFM) |
Arrival
| Time | 2026-05-07 09:35 |
|---|---|
| Airport | Hakkari Yüksekova Airport (LTCW) |
| Time | Latitude | Longitude | Altitude | Speed | Heading |
|---|---|---|---|---|---|
| 2026-05-07 08:57 | 38.19770 | 42.23972 | 34974 ft | 450 kts | 115° |
| 2026-05-07 08:58 | 38.17106 | 42.31124 | 34975 ft | 450 kts | 115° |
| 2026-05-07 08:58 | 38.14439 | 42.38267 | 34975 ft | 450 kts | 115° |
| 2026-05-07 08:59 | 38.11768 | 42.45405 | 34975 ft | 450 kts | 115° |
| 2026-05-07 08:59 | 38.09078 | 42.52576 | 34975 ft | 450 kts | 115° |
| 2026-05-07 09:00 | 38.06389 | 42.59726 | 34975 ft | 450 kts | 115° |
| 2026-05-07 09:00 | 38.03694 | 42.66881 | 34975 ft | 450 kts | 115° |
| 2026-05-07 09:01 | 38.01021 | 42.73983 | 34975 ft | 450 kts | 115° |
| 2026-05-07 09:01 | 37.98315 | 42.81143 | 34974 ft | 450 kts | 115° |
| 2026-05-07 09:02 | 37.95611 | 42.88269 | 34974 ft | 450 kts | 115° |
| 2026-05-07 09:02 | 37.92900 | 42.95394 | 34974 ft | 450 kts | 115° |
| 2026-05-07 09:03 | 37.90195 | 43.02483 | 34974 ft | 450 kts | 115° |
| 2026-05-07 09:03 | 37.87458 | 43.09582 | 34974 ft | 450 kts | 116° |
| 2026-05-07 09:04 | 37.84728 | 43.16667 | 34974 ft | 450 kts | 115° |
| 2026-05-07 09:04 | 37.82059 | 43.23793 | 34974 ft | 450 kts | 112° |
| 2026-05-07 09:05 | 37.79878 | 43.31200 | 34975 ft | 450 kts | 108° |
| 2026-05-07 09:05 | 37.77906 | 43.38691 | 34974 ft | 450 kts | 108° |
| 2026-05-07 09:06 | 37.75938 | 43.46149 | 34974 ft | 450 kts | 108° |
| 2026-05-07 09:06 | 37.73963 | 43.53596 | 34974 ft | 450 kts | 108° |
| 2026-05-07 09:07 | 37.71965 | 43.61098 | 34974 ft | 450 kts | 108° |
| 2026-05-07 09:07 | 37.69972 | 43.68572 | 34974 ft | 450 kts | 108° |
| 2026-05-07 09:08 | 37.67989 | 43.75992 | 34974 ft | 450 kts | 108° |
| 2026-05-07 09:08 | 37.65982 | 43.83443 | 34975 ft | 450 kts | 109° |
| 2026-05-07 09:09 | 37.63969 | 43.90890 | 34974 ft | 450 kts | 108° |
| 2026-05-07 09:09 | 37.61958 | 43.98337 | 34974 ft | 450 kts | 108° |
| 2026-05-07 09:10 | 37.59945 | 44.05767 | 34974 ft | 450 kts | 108° |
| 2026-05-07 09:10 | 37.57920 | 44.13219 | 34974 ft | 450 kts | 108° |
| 2026-05-07 09:11 | 37.55946 | 44.20688 | 34834 ft | 445 kts | 103° |
| 2026-05-07 09:11 | 37.55521 | 44.24490 | 34389 ft | 443 kts | 91° |
| 2026-05-07 09:11 | 37.55780 | 44.28346 | 33793 ft | 441 kts | 77° |
| 2026-05-07 09:12 | 37.56728 | 44.31971 | 33270 ft | 437 kts | 64° |
| 2026-05-07 09:12 | 37.58322 | 44.35125 | 33091 ft | 425 kts | 49° |
| 2026-05-07 09:12 | 37.60466 | 44.37625 | 32899 ft | 413 kts | 33° |
| 2026-05-07 09:12 | 37.62967 | 44.39232 | 32661 ft | 403 kts | 17° |
| 2026-05-07 09:13 | 37.65702 | 44.39874 | 32244 ft | 399 kts | 0° |
| 2026-05-07 09:13 | 37.68433 | 44.39458 | 31774 ft | 395 kts | 342° |
| 2026-05-07 09:13 | 37.70897 | 44.38021 | 31307 ft | 392 kts | 324° |
| 2026-05-07 09:13 | 37.72848 | 44.35724 | 30846 ft | 389 kts | 306° |
| 2026-05-07 09:14 | 37.74120 | 44.32747 | 30381 ft | 385 kts | 287° |
| 2026-05-07 09:14 | 37.74543 | 44.29418 | 29919 ft | 382 kts | 267° |
| 2026-05-07 09:14 | 37.74070 | 44.26164 | 29473 ft | 378 kts | 248° |
| 2026-05-07 09:14 | 37.72769 | 44.23338 | 29036 ft | 375 kts | 228° |
| 2026-05-07 09:15 | 37.70833 | 44.21199 | 28621 ft | 371 kts | 216° |
| 2026-05-07 09:15 | 37.68921 | 44.19067 | 28060 ft | 372 kts | 231° |
| 2026-05-07 09:15 | 37.67655 | 44.16239 | 27611 ft | 368 kts | 252° |
| 2026-05-07 09:15 | 37.67262 | 44.13117 | 27256 ft | 362 kts | 272° |
| 2026-05-07 09:16 | 37.67746 | 44.10039 | 26832 ft | 359 kts | 291° |
| 2026-05-07 09:16 | 37.68816 | 44.07227 | 26413 ft | 357 kts | 298° |
| 2026-05-07 09:16 | 37.70022 | 44.04497 | 25924 ft | 357 kts | 299° |
| 2026-05-07 09:16 | 37.71257 | 44.01779 | 25504 ft | 354 kts | 300° |
| 2026-05-07 09:17 | 37.72476 | 43.99110 | 25116 ft | 352 kts | 300° |
| 2026-05-07 09:17 | 37.73689 | 43.96457 | 24727 ft | 349 kts | 300° |
| 2026-05-07 09:17 | 37.74969 | 43.93860 | 24315 ft | 346 kts | 309° |
| 2026-05-07 09:17 | 37.76742 | 43.91906 | 23910 ft | 343 kts | 331° |
| 2026-05-07 09:18 | 37.78978 | 43.90916 | 23572 ft | 337 kts | 351° |
| 2026-05-07 09:18 | 37.81290 | 43.90659 | 23192 ft | 335 kts | 357° |
| 2026-05-07 09:18 | 37.83617 | 43.90570 | 22735 ft | 335 kts | 358° |
| 2026-05-07 09:18 | 37.85940 | 43.90515 | 22341 ft | 333 kts | 359° |
| 2026-05-07 09:19 | 37.88234 | 43.90467 | 21979 ft | 330 kts | 359° |
| 2026-05-07 09:19 | 37.90521 | 43.90421 | 21616 ft | 327 kts | 359° |
| 2026-05-07 09:19 | 37.92797 | 43.90376 | 21251 ft | 324 kts | 359° |
| 2026-05-07 09:19 | 37.94998 | 43.90720 | 20822 ft | 322 kts | 21° |
| 2026-05-07 09:20 | 37.96817 | 43.92289 | 20460 ft | 316 kts | 50° |
| 2026-05-07 09:20 | 37.97924 | 43.94628 | 20131 ft | 312 kts | 71° |
| 2026-05-07 09:20 | 37.98288 | 43.97320 | 19705 ft | 310 kts | 92° |
| 2026-05-07 09:20 | 37.97869 | 43.99954 | 19300 ft | 308 kts | 113° |
| 2026-05-07 09:21 | 37.96740 | 44.02208 | 18914 ft | 305 kts | 134° |
| 2026-05-07 09:21 | 37.95055 | 44.03834 | 18544 ft | 302 kts | 149° |
| 2026-05-07 09:21 | 37.93256 | 44.05151 | 18167 ft | 301 kts | 150° |
| 2026-05-07 09:21 | 37.91433 | 44.06462 | 17780 ft | 299 kts | 150° |
| 2026-05-07 09:22 | 37.89633 | 44.07768 | 17422 ft | 297 kts | 149° |
| 2026-05-07 09:22 | 37.87853 | 44.09071 | 17070 ft | 295 kts | 149° |
| 2026-05-07 09:22 | 37.86092 | 44.10368 | 16715 ft | 292 kts | 149° |
| 2026-05-07 09:22 | 37.84353 | 44.11654 | 16357 ft | 290 kts | 149° |
| 2026-05-07 09:23 | 37.82628 | 44.12931 | 16007 ft | 288 kts | 149° |
| 2026-05-07 09:23 | 37.80898 | 44.14213 | 15656 ft | 286 kts | 149° |
| 2026-05-07 09:23 | 37.79176 | 44.15489 | 15305 ft | 284 kts | 149° |
| 2026-05-07 09:23 | 37.77491 | 44.16738 | 14960 ft | 282 kts | 149° |
| 2026-05-07 09:24 | 37.75817 | 44.17978 | 14616 ft | 280 kts | 149° |
| 2026-05-07 09:24 | 37.74134 | 44.19225 | 14268 ft | 278 kts | 149° |
| 2026-05-07 09:24 | 37.72469 | 44.20458 | 13922 ft | 276 kts | 149° |
| 2026-05-07 09:24 | 37.70817 | 44.21680 | 13575 ft | 274 kts | 149° |
| 2026-05-07 09:25 | 37.69190 | 44.22883 | 13231 ft | 272 kts | 149° |
| 2026-05-07 09:25 | 37.67566 | 44.24085 | 12888 ft | 271 kts | 149° |
| 2026-05-07 09:25 | 37.65941 | 44.25285 | 12540 ft | 269 kts | 149° |
| 2026-05-07 09:25 | 37.64339 | 44.26468 | 12193 ft | 268 kts | 149° |
| 2026-05-07 09:26 | 37.62726 | 44.27658 | 11844 ft | 266 kts | 149° |
| 2026-05-07 09:26 | 37.61131 | 44.28835 | 11498 ft | 265 kts | 149° |
| 2026-05-07 09:26 | 37.59555 | 44.29997 | 11156 ft | 264 kts | 149° |
| 2026-05-07 09:26 | 37.57973 | 44.31164 | 10813 ft | 262 kts | 149° |
| 2026-05-07 09:27 | 37.56409 | 44.32315 | 10605 ft | 258 kts | 149° |
| 2026-05-07 09:27 | 37.54858 | 44.33457 | 10594 ft | 261 kts | 149° |
| 2026-05-07 09:27 | 37.51706 | 44.35777 | 10589 ft | 261 kts | 149° |
| 2026-05-07 09:28 | 37.50175 | 44.36902 | 10571 ft | 250 kts | 149° |
| 2026-05-07 09:28 | 37.48683 | 44.37999 | 10582 ft | 248 kts | 149° |
| 2026-05-07 09:28 | 37.47196 | 44.39092 | 10585 ft | 248 kts | 149° |
| 2026-05-07 09:28 | 37.45713 | 44.40181 | 10587 ft | 248 kts | 149° |
| 2026-05-07 09:29 | 37.44215 | 44.41280 | 10588 ft | 248 kts | 149° |
| 2026-05-07 09:29 | 37.42724 | 44.42374 | 10588 ft | 248 kts | 149° |
| 2026-05-07 09:29 | 37.41235 | 44.43465 | 10588 ft | 248 kts | 149° |
| 2026-05-07 09:29 | 37.39712 | 44.44491 | 10573 ft | 248 kts | 161° |
| 2026-05-07 09:30 | 37.38036 | 44.44577 | 10544 ft | 245 kts | 199° |
| 2026-05-07 09:30 | 37.36621 | 44.43449 | 10566 ft | 244 kts | 231° |
| 2026-05-07 09:30 | 37.35902 | 44.41552 | 10575 ft | 244 kts | 263° |
| 2026-05-07 09:30 | 37.36085 | 44.39457 | 10565 ft | 241 kts | 294° |
| 2026-05-07 09:31 | 37.37088 | 44.37818 | 10317 ft | 238 kts | 326° |
| 2026-05-07 09:31 | 37.38618 | 44.37084 | 9891 ft | 239 kts | 355° |
| 2026-05-07 09:31 | 37.40268 | 44.37000 | 9498 ft | 241 kts | 358° |
| 2026-05-07 09:31 | 37.41955 | 44.36949 | 9106 ft | 242 kts | 358° |
| 2026-05-07 09:32 | 37.43622 | 44.36880 | 8771 ft | 241 kts | 357° |
| 2026-05-07 09:32 | 37.45288 | 44.36792 | 8581 ft | 231 kts | 355° |
| 2026-05-07 09:32 | 37.46762 | 44.36240 | 8415 ft | 217 kts | 327° |
| 2026-05-07 09:32 | 37.47837 | 44.34994 | 8216 ft | 204 kts | 312° |
| 2026-05-07 09:33 | 37.48731 | 44.33724 | 7987 ft | 186 kts | 308° |
| 2026-05-07 09:33 | 37.49559 | 44.32558 | 7619 ft | 176 kts | 312° |
| 2026-05-07 09:33 | 37.50477 | 44.31525 | 7219 ft | 184 kts | 318° |
| 2026-05-07 09:33 | 37.51525 | 44.30494 | 7222 ft | 195 kts | 321° |
| 2026-05-07 09:34 | 37.52504 | 44.29390 | 7211 ft | 180 kts | 308° |
| 2026-05-07 09:34 | 37.53150 | 44.28127 | 6955 ft | 167 kts | 294° |
| 2026-05-07 09:34 | 37.53674 | 44.26852 | 6503 ft | 164 kts | 296° |
| 2026-05-07 09:34 | 37.54209 | 44.25605 | 6175 ft | 156 kts | 295° |
| 2026-05-07 09:35 | 37.54675 | 44.24454 | 6089 ft | 131 kts | 292° |
| 2026-05-07 09:35 | 37.54975 | 44.23819 | 6085 ft | 28 kts | 300° |
| 2026-05-07 09:35 | 37.55019 | 44.23721 | 6085 ft | 1 kts | 224° |
| 2026-05-07 09:35 | 37.55001 | 44.23726 | 6085 ft | 3 kts | 158° |
| 2026-05-07 09:36 | 37.54974 | 44.23762 | 6085 ft | 9 kts | 114° |
| 2026-05-07 09:36 | 37.54939 | 44.23872 | 6085 ft | 15 kts | 115° |
| 2026-05-07 09:36 | 37.54882 | 44.24009 | 6088 ft | 19 kts | 116° |
| 2026-05-07 09:36 | 37.54804 | 44.24167 | 6088 ft | 23 kts | 119° |
| 2026-05-07 09:37 | 37.54723 | 44.24363 | 6088 ft | 27 kts | 115° |
| 2026-05-07 09:37 | 37.54632 | 44.24587 | 6090 ft | 29 kts | 118° |
| 2026-05-07 09:37 | 37.54536 | 44.24809 | 6091 ft | 22 kts | 119° |
| 2026-05-07 09:37 | 37.54454 | 44.24983 | 6091 ft | 20 kts | 121° |
| 2026-05-07 09:38 | 37.54387 | 44.25161 | 6092 ft | 24 kts | 118° |
| 2026-05-07 09:38 | 37.54334 | 44.25294 | 6094 ft | 9 kts | 121° |
| 2026-05-07 09:38 | 37.54328 | 44.25368 | 6095 ft | 10 kts | 41° |
| 2026-05-07 09:38 | 37.54407 | 44.25426 | 6095 ft | 16 kts | 26° |
| 2026-05-07 09:39 | 37.54505 | 44.25491 | 6098 ft | 11 kts | 26° |
| 2026-05-07 09:39 | 37.54529 | 44.25485 | 6098 ft | 4 kts | 318° |
| 2026-05-07 09:39 | 37.54551 | 44.25468 | 6098 ft | 1 kts | 28° |
| 2026-05-07 09:39 | 37.54568 | 44.25480 | 6098 ft | 3 kts | 25° |
| 2026-05-07 09:40 | 37.54593 | 44.25497 | 6098 ft | 4 kts | 31° |
| 2026-05-07 09:40 | 37.54602 | 44.25504 | 6098 ft | 0 kts | 29° |